createdAt,value
2024-04-04T00:01:49.466Z,100090.02
2024-04-04T00:04:26.168Z,100085.40
2024-04-04T00:06:57.131Z,100084.36
2024-04-04T00:09:26.118Z,100083.83
2024-04-04T00:11:56.510Z,100079.84
2024-04-04T00:14:27.229Z,100075.52
2024-04-04T00:16:57.839Z,100069.80
2024-04-04T00:19:28.766Z,100069.17
2024-04-04T00:21:57.687Z,100068.54
2024-04-04T00:24:28.215Z,100072.64
2024-04-04T00:27:05.176Z,100066.63
2024-04-04T00:29:39.544Z,100063.27
2024-04-04T00:32:10.088Z,100059.05
2024-04-04T00:34:40.531Z,100060.00
2024-04-04T00:37:11.061Z,100055.16
2024-04-04T00:39:41.411Z,100059.08
2024-04-04T00:42:11.972Z,100060.95
2024-04-04T00:44:42.200Z,100061.51
2024-04-04T00:47:12.941Z,100067.27
2024-04-04T00:49:43.994Z,100068.68
2024-04-04T00:52:14.499Z,100065.38
2024-04-04T00:54:46.617Z,100065.98
2024-04-04T00:57:17.439Z,100063.73
2024-04-04T00:59:48.067Z,100063.48
2024-04-04T01:02:18.897Z,100061.77
2024-04-04T01:04:49.371Z,100059.53
2024-04-04T01:07:20.388Z,100059.22
2024-04-04T01:09:49.578Z,100053.67
2024-04-04T01:12:20.722Z,100055.95
2024-04-04T01:14:51.764Z,100049.23
2024-04-04T01:17:22.448Z,100048.21
2024-04-04T01:19:53.218Z,100048.56
2024-04-04T01:22:23.731Z,100053.10
2024-04-04T01:24:54.179Z,100057.99
2024-04-04T01:27:24.777Z,100059.24
2024-04-04T01:29:55.119Z,100058.63
2024-04-04T01:32:26.096Z,100054.56
2024-04-04T01:34:54.954Z,100053.58
2024-04-04T01:37:25.432Z,100055.91
2024-04-04T01:39:55.891Z,100056.01
2024-04-04T01:42:26.307Z,100053.45
2024-04-04T01:44:56.625Z,100052.30
2024-04-04T01:47:26.910Z,100051.86
2024-04-04T01:49:57.515Z,100050.71
2024-04-04T01:52:27.928Z,100051.70
2024-04-04T01:54:58.258Z,100052.67
2024-04-04T01:57:28.902Z,100050.16
2024-04-04T02:00:00.116Z,100053.63
2024-04-04T02:02:30.686Z,100054.44
2024-04-04T02:05:01.034Z,100057.31
2024-04-04T02:07:31.495Z,100056.39
2024-04-04T02:10:02.245Z,100050.67
2024-04-04T02:12:32.787Z,100042.79
2024-04-04T02:15:03.423Z,100041.98
2024-04-04T02:17:33.685Z,100044.95
2024-04-04T02:20:04.686Z,100043.13
2024-04-04T02:22:33.688Z,100046.03
2024-04-04T02:25:04.400Z,100047.49
2024-04-04T02:27:34.797Z,100045.75
2024-04-04T02:30:06.327Z,100045.94
2024-04-04T02:32:36.951Z,100043.56
2024-04-04T02:35:09.147Z,100040.23
2024-04-04T02:37:40.034Z,100035.59
2024-04-04T02:40:12.935Z,100032.09
2024-04-04T02:42:43.244Z,100033.17
2024-04-04T02:45:13.707Z,100031.36
2024-04-04T02:47:44.174Z,100028.02
2024-04-04T02:50:14.589Z,100027.80
2024-04-04T02:52:45.455Z,100027.82
2024-04-04T02:55:16.037Z,100028.49
2024-04-04T02:57:46.899Z,100028.30
2024-04-04T03:00:18.142Z,100028.05
2024-04-04T03:02:48.619Z,100028.08
2024-04-04T03:05:18.997Z,100023.25
2024-04-04T03:07:50.853Z,100021.33
2024-04-04T03:10:21.433Z,100022.20
2024-04-04T03:12:51.807Z,100022.41
2024-04-04T03:15:22.211Z,100024.05
2024-04-04T03:17:52.626Z,100022.63
2024-04-04T03:20:23.186Z,100017.13
2024-04-04T03:23:02.125Z,100018.51
2024-04-04T03:25:32.567Z,100018.25
2024-04-04T03:28:03.283Z,100015.52
2024-04-04T03:30:33.717Z,100016.13
2024-04-04T03:33:04.535Z,100016.42
2024-04-04T03:35:37.336Z,100018.31
2024-04-04T03:38:07.946Z,100019.58
2024-04-04T03:40:38.434Z,100022.34
2024-04-04T03:43:08.904Z,100025.49
2024-04-04T03:45:41.928Z,100022.30
2024-04-04T03:48:12.322Z,100024.73
2024-04-04T03:50:42.790Z,100017.21
2024-04-04T03:53:14.137Z,100021.32
2024-04-04T03:55:44.692Z,100021.23
2024-04-04T03:58:17.194Z,100024.80
2024-04-04T04:00:47.683Z,100019.75
2024-04-04T04:03:18.171Z,100016.58
2024-04-04T04:05:48.962Z,100010.61
2024-04-04T04:08:19.360Z,100011.50
2024-04-04T04:10:49.847Z,100011.30
2024-04-04T04:13:20.513Z,100013.64
2024-04-04T04:15:58.021Z,100011.02
2024-04-04T04:18:28.426Z,100008.39
2024-04-04T04:21:01.849Z,100010.52
2024-04-04T04:23:32.230Z,100008.98
2024-04-04T04:26:02.730Z,100009.25
2024-04-04T04:28:33.238Z,100010.50
2024-04-04T04:31:03.910Z,100005.94
2024-04-04T04:33:34.324Z,100010.04
2024-04-04T04:36:06.899Z,100012.52
2024-04-04T04:38:37.263Z,100010.09
2024-04-04T04:41:09.215Z,100008.47
2024-04-04T04:43:39.663Z,100014.68
2024-04-04T04:46:10.191Z,100010.71
2024-04-04T04:48:40.551Z,100007.80
2024-04-04T04:51:11.643Z,100012.48
2024-04-04T04:53:42.590Z,100006.48
2024-04-04T04:56:11.882Z,100006.09
2024-04-04T04:58:42.741Z,100006.33
2024-04-04T05:01:13.836Z,100007.01
2024-04-04T05:03:46.286Z,100009.23
2024-04-04T05:06:17.304Z,100010.70
2024-04-04T05:08:47.990Z,100014.66
2024-04-04T05:11:18.781Z,100018.36
2024-04-04T05:13:49.161Z,100019.91
2024-04-04T05:16:19.700Z,100019.87
2024-04-04T05:18:50.125Z,100022.09
2024-04-04T05:21:20.588Z,100022.22
2024-04-04T05:23:51.518Z,100026.39
2024-04-04T05:26:22.558Z,100030.22
2024-04-04T05:28:56.060Z,100033.53
2024-04-04T05:31:26.438Z,100037.02
2024-04-04T05:33:56.767Z,100035.58
2024-04-04T05:36:27.271Z,100036.39
2024-04-04T05:38:57.644Z,100035.42
2024-04-04T05:41:28.050Z,100034.12
2024-04-04T05:43:58.795Z,100036.08
2024-04-04T05:46:29.819Z,100036.23
2024-04-04T05:48:58.629Z,100038.34
2024-04-04T05:51:29.961Z,100040.42
2024-04-04T05:54:00.313Z,100037.64
2024-04-04T05:56:31.087Z,100040.20
2024-04-04T05:59:02.203Z,100039.80
2024-04-04T06:01:33.505Z,100038.64
2024-04-04T06:04:04.731Z,100042.03
2024-04-04T06:06:35.064Z,100042.09
2024-04-04T06:09:05.744Z,100044.31
2024-04-04T06:11:36.257Z,100048.02
2024-04-04T06:14:07.118Z,100053.05
2024-04-04T06:16:36.369Z,100058.83
2024-04-04T06:19:08.382Z,100058.39
2024-04-04T06:21:38.920Z,100065.15
2024-04-04T06:24:09.542Z,100068.20
2024-04-04T06:26:39.935Z,100064.11
2024-04-04T06:29:10.647Z,100058.80
2024-04-04T06:31:41.145Z,100057.40
2024-04-04T06:34:12.168Z,100060.13
2024-04-04T06:36:42.424Z,100062.48
2024-04-04T06:39:13.390Z,100063.65
2024-04-04T06:41:42.928Z,100064.52
2024-04-04T06:44:13.440Z,100063.91
2024-04-04T06:46:43.885Z,100065.11
2024-04-04T06:49:14.358Z,100069.35
2024-04-04T06:51:45.456Z,100067.54
2024-04-04T06:54:15.993Z,100062.94
2024-04-04T06:56:47.078Z,100059.67
2024-04-04T06:59:27.920Z,100067.69
2024-04-04T07:01:58.491Z,100067.70
2024-04-04T07:04:28.854Z,100067.11
2024-04-04T07:06:59.530Z,100069.77
2024-04-04T07:09:30.090Z,100071.61
2024-04-04T07:12:00.552Z,100073.16
2024-04-04T07:14:31.123Z,100075.98
2024-04-04T07:17:02.314Z,100074.31
2024-04-04T07:19:32.735Z,100072.91
2024-04-04T07:22:03.372Z,100071.75
2024-04-04T07:24:32.565Z,100078.06
2024-04-04T07:27:02.851Z,100079.84
2024-04-04T07:29:33.254Z,100081.60
2024-04-04T07:32:03.797Z,100083.66
2024-04-04T07:34:34.284Z,100086.86
2024-04-04T07:37:05.120Z,100089.93
2024-04-04T07:39:35.484Z,100088.68
2024-04-04T07:42:07.486Z,100093.13
2024-04-04T07:44:37.778Z,100096.09
2024-04-04T07:47:10.002Z,100095.52
2024-04-04T07:49:40.478Z,100097.58
2024-04-04T07:52:11.014Z,100098.89
2024-04-04T07:54:41.368Z,100097.35
2024-04-04T07:57:12.515Z,100096.11
2024-04-04T07:59:43.799Z,100093.59
2024-04-04T08:02:14.121Z,100091.36
2024-04-04T08:04:44.418Z,100094.31
2024-04-04T08:07:14.838Z,100094.65
2024-04-04T08:09:45.123Z,100096.45
2024-04-04T08:12:15.945Z,100098.77
2024-04-04T08:14:46.247Z,100095.83
2024-04-04T08:17:16.628Z,100096.81
2024-04-04T08:19:47.017Z,100101.53
2024-04-04T08:22:17.470Z,100101.73
2024-04-04T08:24:47.953Z,100106.85
2024-04-04T08:27:18.439Z,100110.02
2024-04-04T08:29:48.618Z,100109.37
2024-04-04T08:32:19.084Z,100102.02
2024-04-04T08:34:49.610Z,100099.98
2024-04-04T08:37:19.960Z,100101.09
2024-04-04T08:39:50.350Z,100102.02
2024-04-04T08:42:23.571Z,100100.36
2024-04-04T08:44:54.889Z,100096.23
2024-04-04T08:47:26.457Z,100100.92
2024-04-04T08:49:57.351Z,100101.22
2024-04-04T08:52:27.750Z,100092.73
2024-04-04T08:54:58.263Z,100097.18
2024-04-04T08:57:29.270Z,100097.67
2024-04-04T09:00:00.006Z,100100.98
2024-04-04T09:02:30.437Z,100103.87
2024-04-04T09:05:07.275Z,100104.61
2024-04-04T09:07:38.332Z,100103.38
2024-04-04T09:10:14.073Z,100106.08
2024-04-04T09:12:45.551Z,100106.52
2024-04-04T09:15:17.731Z,100115.08
2024-04-04T09:17:48.057Z,100109.34
2024-04-04T09:20:20.478Z,100100.29
2024-04-04T09:22:54.604Z,100100.09
2024-04-04T09:25:25.374Z,100101.91
2024-04-04T09:27:56.449Z,100102.16
2024-04-04T09:30:28.467Z,100103.03
2024-04-04T09:32:59.057Z,100103.34
2024-04-04T09:35:31.252Z,100104.83
2024-04-04T09:38:02.300Z,100103.33
2024-04-04T09:40:32.934Z,100104.99
2024-04-04T09:43:02.087Z,100104.59
2024-04-04T09:45:34.546Z,100108.83
2024-04-04T09:48:07.593Z,100104.27
2024-04-04T09:50:38.283Z,100102.16
2024-04-04T09:53:07.786Z,100094.65
2024-04-04T09:55:38.371Z,100089.38
2024-04-04T09:58:09.619Z,100094.33
2024-04-04T10:00:42.532Z,100091.89
2024-04-04T10:03:14.990Z,100095.50
2024-04-04T10:05:45.677Z,100095.88
2024-04-04T10:08:16.526Z,100096.75
2024-04-04T10:10:47.448Z,100092.04
2024-04-04T10:13:20.043Z,100091.65
2024-04-04T10:15:51.274Z,100084.82
2024-04-04T10:18:21.593Z,100079.66
2024-04-04T10:20:55.731Z,100070.86
2024-04-04T10:23:27.282Z,100062.26
2024-04-04T10:26:08.888Z,100057.38
2024-04-04T10:28:39.306Z,100065.30
2024-04-04T10:31:09.157Z,100064.20
2024-04-04T10:33:39.592Z,100064.00
2024-04-04T10:36:11.636Z,100061.52
2024-04-04T10:38:42.787Z,100070.37
2024-04-04T10:41:13.076Z,100077.55
2024-04-04T10:43:44.889Z,100076.30
2024-04-04T10:46:16.435Z,100071.90
2024-04-04T10:48:47.232Z,100076.52
2024-04-04T10:51:17.681Z,100073.48
2024-04-04T10:53:48.579Z,100071.79
2024-04-04T10:56:17.494Z,100073.51
2024-04-04T10:58:52.111Z,100076.27
2024-04-04T11:01:33.003Z,100077.02
2024-04-04T11:04:05.405Z,100071.30
2024-04-04T11:06:35.861Z,100070.69
2024-04-04T11:09:09.260Z,100070.85
2024-04-04T11:11:41.179Z,100064.58
2024-04-04T11:14:12.301Z,100065.90
2024-04-04T11:16:42.666Z,100064.83
2024-04-04T11:19:13.422Z,100062.86
2024-04-04T11:21:43.978Z,100057.41
2024-04-04T11:24:16.116Z,100053.60
2024-04-04T11:26:47.511Z,100050.63
2024-04-04T11:29:16.426Z,100047.19
2024-04-04T11:31:46.819Z,100051.17
2024-04-04T11:34:17.095Z,100053.11
2024-04-04T11:36:47.687Z,100057.94
2024-04-04T11:39:18.632Z,100055.83
2024-04-04T11:41:49.145Z,100052.31
2024-04-04T11:44:19.428Z,100050.88
2024-04-04T11:46:49.844Z,100048.75
2024-04-04T11:49:20.117Z,100046.36
2024-04-04T11:51:50.381Z,100043.16
2024-04-04T11:54:20.999Z,100042.02
2024-04-04T11:56:51.812Z,100041.35
2024-04-04T12:02:52.127Z,100032.33
2024-04-04T12:05:23.111Z,100032.94
2024-04-04T12:07:53.852Z,100029.57
2024-04-04T12:10:22.763Z,100031.61
2024-04-04T12:12:53.999Z,100035.10
2024-04-04T12:15:24.357Z,100034.48
2024-04-04T12:17:58.057Z,100035.74
2024-04-04T12:20:29.632Z,100030.80
2024-04-04T12:23:00.095Z,100029.31
2024-04-04T12:25:30.724Z,100026.42
2024-04-04T12:27:59.672Z,100020.36
2024-04-04T12:30:30.174Z,100018.90
2024-04-04T12:33:00.723Z,100017.91
2024-04-04T12:35:31.248Z,100015.46
2024-04-04T12:38:02.024Z,100012.11
2024-04-04T12:40:32.395Z,100012.61
2024-04-04T12:43:02.836Z,100011.70
2024-04-04T12:45:34.168Z,100012.67
2024-04-04T12:48:05.127Z,100017.24
2024-04-04T12:50:35.590Z,100011.99
2024-04-04T12:53:06.966Z,100010.48
2024-04-04T12:55:37.487Z,100011.21
2024-04-04T12:58:08.461Z,100010.34
2024-04-04T13:00:39.651Z,100007.20
2024-04-04T13:03:10.642Z,100004.34
2024-04-04T13:05:39.833Z,100000.02
2024-04-04T13:08:10.398Z,100000.96
2024-04-04T13:10:40.848Z,99995.50
2024-04-04T13:13:11.166Z,99998.63
2024-04-04T13:15:41.847Z,99999.17
2024-04-04T13:18:10.619Z,100000.03
2024-04-04T13:20:41.750Z,99993.98
2024-04-04T13:23:12.228Z,99994.69
2024-04-04T13:25:42.612Z,99989.60
2024-04-04T13:28:13.004Z,99986.65
2024-04-04T13:30:44.153Z,99982.55
2024-04-04T13:33:14.676Z,99980.00
2024-04-04T13:35:45.306Z,99974.92
2024-04-04T13:38:16.139Z,99968.25
2024-04-04T13:40:46.841Z,99968.73
2024-04-04T13:43:17.299Z,99962.96
2024-04-04T13:45:47.682Z,99962.11
2024-04-04T13:48:18.070Z,99956.95
2024-04-04T13:50:48.454Z,99959.54
2024-04-04T13:53:19.799Z,99956.17
2024-04-04T13:55:50.167Z,99949.75
2024-04-04T13:58:20.847Z,99947.70
2024-04-04T14:00:49.853Z,99944.88
2024-04-04T14:03:20.176Z,99940.56
2024-04-04T14:05:52.577Z,99938.53
2024-04-04T14:08:23.166Z,99936.82
2024-04-04T14:10:53.545Z,99935.95
2024-04-04T14:13:24.089Z,99930.33
2024-04-04T14:15:54.632Z,99925.71
2024-04-04T14:18:42.910Z,99922.58
2024-04-04T14:21:16.705Z,99924.02
2024-04-04T14:23:47.155Z,99914.08
2024-04-04T14:26:16.395Z,99915.02
2024-04-04T14:28:55.315Z,99915.11
2024-04-04T14:31:25.920Z,99906.17
2024-04-04T14:33:56.408Z,99909.25
2024-04-04T14:36:27.310Z,99908.70
2024-04-04T14:38:58.611Z,99903.14
2024-04-04T14:41:29.258Z,99900.69
2024-04-04T14:43:59.502Z,99897.48
2024-04-04T14:46:30.128Z,99898.66
2024-04-04T14:49:00.484Z,99903.12
2024-04-04T14:51:30.824Z,99893.64
2024-04-04T14:54:01.348Z,99891.83
2024-04-04T14:56:32.441Z,99891.83
2024-04-04T14:59:02.753Z,99895.20
2024-04-04T15:01:33.386Z,99894.82
2024-04-04T15:04:05.179Z,99885.73
2024-04-04T15:06:36.299Z,99884.08
2024-04-04T15:09:06.932Z,99880.48
2024-04-04T15:11:37.490Z,99883.63
2024-04-04T15:14:08.022Z,99889.86
2024-04-04T15:16:38.841Z,99896.96
2024-04-04T15:19:07.750Z,99897.88
2024-04-04T15:21:38.265Z,99895.20
2024-04-04T15:24:10.960Z,99879.14
2024-04-04T15:26:42.099Z,99878.73
2024-04-04T15:29:12.586Z,99874.65
2024-04-04T15:31:43.249Z,99871.83
2024-04-04T15:34:14.343Z,99875.66
2024-04-04T15:36:44.864Z,99881.36
2024-04-04T15:39:16.808Z,99887.85
2024-04-04T15:41:47.281Z,99884.55
2024-04-04T15:44:17.852Z,99883.27
2024-04-04T15:46:48.311Z,99879.25
2024-04-04T15:49:19.011Z,99879.98
2024-04-04T15:51:50.095Z,99882.14
2024-04-04T15:54:21.279Z,99873.33
2024-04-04T15:56:52.565Z,99875.89
2024-04-04T15:59:23.140Z,99873.10
2024-04-04T16:01:53.491Z,99869.24
2024-04-04T16:04:23.950Z,99864.05
2024-04-04T16:06:54.395Z,99856.98
2024-04-04T16:09:25.132Z,99851.70
2024-04-04T16:12:18.587Z,99849.73
2024-04-04T16:14:46.708Z,99847.96
2024-04-04T16:17:17.195Z,99844.58
2024-04-04T16:19:47.881Z,99841.52
2024-04-04T16:22:18.467Z,99838.84
2024-04-04T16:24:49.271Z,99837.01
2024-04-04T16:27:19.708Z,99835.10
2024-04-04T16:29:50.418Z,99833.91
2024-04-04T16:32:19.653Z,99829.84
2024-04-04T16:34:50.171Z,99828.04
2024-04-04T16:37:20.667Z,99823.36
2024-04-04T16:39:53.924Z,99820.03
2024-04-04T16:42:24.407Z,99819.48
2024-04-04T16:44:54.814Z,99816.75
2024-04-04T16:47:25.749Z,99817.92
2024-04-04T16:49:56.327Z,99814.11
2024-04-04T16:52:27.391Z,99815.60
2024-04-04T16:54:58.252Z,99818.11
2024-04-04T16:57:28.605Z,99818.55
2024-04-04T16:59:58.815Z,99815.31
2024-04-04T17:02:29.313Z,99822.84
2024-04-04T17:05:00.031Z,99823.18
2024-04-04T17:11:00.869Z,99822.88
2024-04-04T17:13:31.569Z,99822.67
2024-04-04T17:16:07.273Z,99822.43
2024-04-04T17:18:37.859Z,99825.35
2024-04-04T17:21:08.390Z,99823.59
2024-04-04T17:23:38.983Z,99825.40
2024-04-04T17:26:09.283Z,99829.55
2024-04-04T17:28:40.208Z,99827.23
2024-04-04T17:31:10.493Z,99831.17
2024-04-04T17:33:40.817Z,99835.36
2024-04-04T17:36:11.809Z,99838.31
2024-04-04T17:38:44.543Z,99841.78
2024-04-04T17:41:15.767Z,99838.43
2024-04-04T17:43:46.369Z,99841.70
2024-04-04T17:46:18.994Z,99845.20
2024-04-04T17:48:49.421Z,99845.64
2024-04-04T17:51:19.675Z,99851.17
2024-04-04T17:53:50.335Z,99854.27
2024-04-04T17:56:21.524Z,99855.41
2024-04-04T17:58:51.963Z,99852.23
2024-04-04T18:01:22.602Z,99853.57
2024-04-04T18:03:53.518Z,99864.11
2024-04-04T18:06:22.365Z,99867.93
2024-04-04T18:08:52.722Z,99867.53
2024-04-04T18:11:23.254Z,99869.25
2024-04-04T18:13:53.662Z,99865.80
2024-04-04T18:16:24.262Z,99875.40
2024-04-04T18:18:54.847Z,99881.02
2024-04-04T18:21:25.115Z,99879.79
2024-04-04T18:23:55.701Z,99881.02
2024-04-04T18:26:26.035Z,99884.61
2024-04-04T18:29:00.463Z,99885.08
2024-04-04T18:31:30.780Z,99886.27
2024-04-04T18:34:01.450Z,99885.59
2024-04-04T18:36:31.916Z,99887.16
2024-04-04T18:39:02.695Z,99888.06
2024-04-04T18:41:33.393Z,99891.20
2024-04-04T18:44:04.143Z,99891.94
2024-04-04T18:46:35.769Z,99888.77
2024-04-04T18:49:06.151Z,99888.23
2024-04-04T18:51:36.515Z,99885.72
2024-04-04T18:54:06.955Z,99887.92
2024-04-04T18:56:37.396Z,99891.96
2024-04-04T18:59:07.942Z,99896.55
2024-04-04T19:01:39.136Z,99902.99
2024-04-04T19:04:09.487Z,99909.69
2024-04-04T19:07:00.172Z,99912.61
2024-04-04T19:09:30.571Z,99918.40
2024-04-04T19:12:01.136Z,99919.70
2024-04-04T19:14:31.995Z,99925.36
2024-04-04T19:17:06.013Z,99919.89
2024-04-04T19:19:40.594Z,99923.52
2024-04-04T19:22:11.264Z,99917.79
2024-04-04T19:24:45.443Z,99918.76
2024-04-04T19:27:15.919Z,99921.96
2024-04-04T19:29:46.385Z,99920.50
2024-04-04T19:32:18.369Z,99924.88
2024-04-04T19:35:12.016Z,99932.27
2024-04-04T19:37:38.257Z,99943.95
2024-04-04T19:40:09.736Z,99953.12
2024-04-04T19:42:42.693Z,99959.73
2024-04-04T19:45:13.046Z,99963.52
2024-04-04T19:47:44.376Z,99960.26
2024-04-04T19:50:16.849Z,99953.48
2024-04-04T19:52:47.628Z,99953.06
2024-04-04T19:55:22.309Z,99953.13
2024-04-04T19:57:53.295Z,99950.17
2024-04-04T20:00:23.764Z,99946.70
2024-04-04T20:02:56.675Z,99948.73
2024-04-04T20:05:27.009Z,99946.83
2024-04-04T20:07:57.558Z,99947.14
2024-04-04T20:10:27.908Z,99950.42
2024-04-04T20:12:58.346Z,99955.98
2024-04-04T20:15:29.492Z,99960.64
2024-04-04T20:17:59.901Z,99964.40
2024-04-04T20:20:30.559Z,99971.49
2024-04-04T20:23:01.103Z,99982.08
2024-04-04T20:25:31.503Z,99988.20
2024-04-04T20:28:03.280Z,99996.40
2024-04-04T20:30:33.907Z,99999.55
2024-04-04T20:33:04.551Z,99997.09
2024-04-04T20:35:35.450Z,99998.32
2024-04-04T20:38:04.548Z,100003.27
2024-04-04T20:40:35.135Z,100004.19
2024-04-04T20:43:05.702Z,100003.45
2024-04-04T20:45:36.580Z,100008.73
2024-04-04T20:48:05.905Z,100007.36
2024-04-04T20:50:37.145Z,100005.34
2024-04-04T20:53:07.782Z,100008.29
2024-04-04T20:55:38.142Z,100003.48
2024-04-04T20:58:08.615Z,100006.86
2024-04-04T21:00:39.054Z,100026.94
2024-04-04T21:03:09.577Z,100044.42
2024-04-04T21:05:39.960Z,100047.45
2024-04-04T21:08:10.557Z,100049.46
2024-04-04T21:10:41.070Z,100048.45
2024-04-04T21:13:11.370Z,100047.59
2024-04-04T21:15:46.312Z,100053.83
2024-04-04T21:18:17.035Z,100053.77
2024-04-04T21:20:47.487Z,100056.34
2024-04-04T21:23:17.790Z,100057.90
2024-04-04T21:25:48.233Z,100054.84
2024-04-04T21:28:19.105Z,100057.61
2024-04-04T21:30:59.276Z,100058.77
2024-04-04T21:33:29.882Z,100057.89
2024-04-04T21:36:00.362Z,100063.48
2024-04-04T21:38:31.321Z,100066.64
2024-04-04T21:41:02.372Z,100063.70
2024-04-04T21:43:31.504Z,100063.67
2024-04-04T21:46:02.288Z,100066.29
2024-04-04T21:48:35.976Z,100072.15
2024-04-04T21:51:09.260Z,100073.25
2024-04-04T21:53:39.676Z,100067.70
2024-04-04T21:56:10.208Z,100062.95
2024-04-04T21:59:01.024Z,100070.30
2024-04-04T22:03:02.252Z,100077.02
2024-04-04T22:05:39.016Z,100079.43
2024-04-04T22:08:11.096Z,100082.91
2024-04-04T22:11:11.867Z,100085.63
2024-04-04T22:13:34.524Z,100091.42
2024-04-04T22:16:05.983Z,100091.66
2024-04-04T22:18:36.304Z,100095.89
2024-04-04T22:21:09.823Z,100094.70
2024-04-04T22:23:40.078Z,100094.65
2024-04-04T22:26:10.669Z,100099.88
2024-04-04T22:28:44.019Z,100099.86
2024-04-04T22:31:14.657Z,100107.75
2024-04-04T22:33:45.191Z,100112.42
2024-04-04T22:36:15.706Z,100114.01
2024-04-04T22:38:47.266Z,100118.26
2024-04-04T22:41:17.701Z,100120.56
2024-04-04T22:43:48.830Z,100120.08
2024-04-04T22:46:19.236Z,100123.02
2024-04-04T22:48:50.067Z,100126.16
2024-04-04T22:51:20.604Z,100125.36
2024-04-04T22:53:51.010Z,100135.11
2024-04-04T22:56:21.375Z,100139.40
2024-04-04T22:58:52.037Z,100142.47
2024-04-04T23:01:22.922Z,100142.10
2024-04-04T23:03:51.663Z,100142.03
2024-04-04T23:06:22.046Z,100140.33
2024-04-04T23:08:52.460Z,100140.96
2024-04-04T23:11:22.868Z,100143.33
2024-04-04T23:13:53.379Z,100145.38
2024-04-04T23:16:24.135Z,100148.91
2024-04-04T23:18:55.259Z,100157.75
2024-04-04T23:21:25.743Z,100159.11
2024-04-04T23:23:56.088Z,100163.73
2024-04-04T23:26:26.505Z,100165.58
2024-04-04T23:28:56.965Z,100172.91
2024-04-04T23:31:27.749Z,100177.23
2024-04-04T23:33:58.627Z,100179.61
2024-04-04T23:36:29.898Z,100176.85
2024-04-04T23:39:00.381Z,100183.91
2024-04-04T23:41:30.638Z,100188.75
2024-04-04T23:44:02.025Z,100190.91
2024-04-04T23:46:32.461Z,100188.02
2024-04-04T23:49:02.720Z,100188.11
2024-04-04T23:51:33.191Z,100191.02
2024-04-04T23:54:03.484Z,100195.05
2024-04-04T23:56:34.082Z,100193.02
2024-04-04T23:59:04.430Z,100193.58
